createdAt,value
2023-08-11T00:01:53.064Z,11.68
2023-08-11T00:04:19.469Z,11.00
2023-08-11T00:06:46.441Z,11.27
2023-08-11T00:09:13.542Z,13.02
2023-08-11T00:11:42.225Z,12.05
2023-08-11T00:14:08.667Z,11.13
2023-08-11T00:16:35.872Z,10.87
2023-08-11T00:19:02.479Z,12.30
2023-08-11T00:21:28.886Z,11.57
2023-08-11T00:23:55.236Z,11.52
2023-08-11T00:26:21.814Z,12.05
2023-08-11T00:28:48.213Z,12.23
2023-08-11T00:31:14.913Z,11.65
2023-08-11T00:33:42.506Z,12.35
2023-08-11T00:36:09.452Z,10.45
2023-08-11T00:38:39.276Z,11.30
2023-08-11T00:41:06.491Z,12.17
2023-08-11T00:43:33.772Z,11.27
2023-08-11T00:46:04.958Z,12.50
2023-08-11T00:48:31.765Z,13.27
2023-08-11T00:50:58.909Z,13.23
2023-08-11T00:53:25.967Z,11.90
2023-08-11T00:55:53.131Z,12.40
2023-08-11T00:58:19.642Z,12.50
2023-08-11T01:00:48.182Z,12.73
2023-08-11T01:03:14.746Z,11.93
2023-08-11T01:05:44.418Z,13.13
2023-08-11T01:08:31.207Z,11.90
2023-08-11T01:11:33.438Z,12.45
2023-08-11T01:14:07.148Z,11.95
2023-08-11T01:16:34.033Z,13.70
2023-08-11T01:19:01.234Z,12.40
2023-08-11T01:21:28.265Z,11.95
2023-08-11T01:23:55.313Z,13.10
2023-08-11T01:26:22.008Z,12.15
2023-08-11T01:28:48.721Z,12.93
2023-08-11T01:31:15.141Z,12.40
2023-08-11T01:33:41.776Z,12.38
2023-08-11T01:36:09.711Z,12.88
2023-08-11T01:38:36.230Z,14.13
2023-08-11T01:41:02.766Z,12.27
2023-08-11T01:43:30.376Z,12.27
2023-08-11T01:45:57.476Z,14.43
2023-08-11T01:48:24.576Z,12.93
2023-08-11T01:50:51.139Z,12.77
2023-08-11T01:53:17.523Z,13.65
2023-08-11T01:55:45.566Z,12.83
2023-08-11T01:58:12.247Z,11.63
2023-08-11T02:00:38.853Z,12.68
2023-08-11T02:03:05.453Z,12.52
2023-08-11T02:05:32.046Z,11.80
2023-08-11T02:07:59.554Z,12.67
2023-08-11T02:10:26.036Z,13.40
2023-08-11T02:12:52.662Z,13.55
2023-08-11T02:15:20.166Z,12.32
2023-08-11T02:17:46.877Z,12.80
2023-08-11T02:20:22.904Z,13.23
2023-08-11T02:22:50.499Z,12.65
2023-08-11T02:25:17.259Z,12.30
2023-08-11T02:27:44.854Z,12.90
2023-08-11T02:30:12.332Z,12.93
2023-08-11T02:32:42.127Z,12.17
2023-08-11T02:35:09.060Z,12.48
2023-08-11T02:37:35.670Z,13.02
2023-08-11T02:40:02.222Z,13.02
2023-08-11T02:42:28.684Z,14.35
2023-08-11T02:44:55.173Z,14.00
2023-08-11T02:47:21.682Z,11.80
2023-08-11T02:49:49.002Z,14.82
2023-08-11T02:52:15.843Z,13.13
2023-08-11T02:54:42.386Z,13.27
2023-08-11T02:57:08.798Z,12.40
2023-08-11T02:59:35.214Z,14.43
2023-08-11T03:02:02.381Z,12.73
2023-08-11T03:04:29.012Z,14.48
2023-08-11T03:06:56.017Z,13.88
2023-08-11T03:09:22.613Z,13.43
2023-08-11T03:11:49.108Z,13.80
2023-08-11T03:14:15.686Z,15.70
2023-08-11T03:16:42.201Z,13.48
2023-08-11T03:19:08.614Z,14.70
2023-08-11T03:21:35.048Z,13.77
2023-08-11T03:24:01.605Z,13.85
2023-08-11T03:26:28.103Z,14.27
2023-08-11T03:28:54.763Z,14.85
2023-08-11T03:31:21.228Z,14.98
2023-08-11T03:33:47.635Z,14.33
2023-08-11T03:36:15.152Z,13.93
2023-08-11T03:38:41.783Z,14.32
2023-08-11T03:41:08.209Z,13.93
2023-08-11T03:43:34.851Z,14.70
2023-08-11T03:46:01.212Z,13.83
2023-08-11T03:48:27.752Z,14.43
2023-08-11T03:50:59.037Z,14.80
2023-08-11T03:53:25.590Z,14.23
2023-08-11T03:55:52.224Z,15.23
2023-08-11T03:58:18.945Z,14.70
2023-08-11T04:00:45.408Z,15.75
2023-08-11T04:03:11.958Z,15.63
2023-08-11T04:05:38.724Z,16.80
2023-08-11T04:08:08.261Z,15.77
2023-08-11T04:10:36.286Z,15.17
2023-08-11T04:13:02.821Z,15.57
2023-08-11T04:15:29.315Z,15.93
2023-08-11T04:17:55.713Z,14.75
2023-08-11T04:20:23.588Z,16.52
2023-08-11T04:22:50.303Z,17.20
2023-08-11T04:25:17.413Z,15.38
2023-08-11T04:27:43.895Z,16.05
2023-08-11T04:30:11.544Z,15.45
2023-08-11T04:32:38.013Z,16.33
2023-08-11T04:35:07.625Z,15.83
2023-08-11T04:37:34.427Z,15.20
2023-08-11T04:40:01.123Z,15.77
2023-08-11T04:42:27.531Z,15.63
2023-08-11T04:44:54.392Z,17.13
2023-08-11T04:47:20.869Z,15.93
2023-08-11T04:49:47.340Z,14.63
2023-08-11T04:52:14.070Z,14.52
2023-08-11T04:54:40.566Z,14.45
2023-08-11T04:57:07.068Z,14.60
2023-08-11T04:59:33.451Z,17.23
2023-08-11T05:02:00.347Z,16.65
2023-08-11T05:04:27.277Z,15.65
2023-08-11T05:06:53.842Z,15.52
2023-08-11T05:09:20.411Z,15.88
2023-08-11T05:11:46.761Z,16.40
2023-08-11T05:14:15.491Z,15.05
2023-08-11T05:16:41.997Z,14.60
2023-08-11T05:19:08.461Z,14.70
2023-08-11T05:21:35.040Z,16.08
2023-08-11T05:24:01.548Z,14.93
2023-08-11T05:26:29.133Z,15.00
2023-08-11T05:28:55.894Z,16.70
2023-08-11T05:31:23.491Z,14.55
2023-08-11T05:33:50.128Z,15.63
2023-08-11T05:36:16.604Z,15.03
2023-08-11T05:38:43.129Z,14.40
2023-08-11T05:41:10.254Z,14.80
2023-08-11T05:43:37.653Z,13.77
2023-08-11T05:46:04.800Z,14.90
2023-08-11T05:48:31.199Z,13.63
2023-08-11T05:50:57.744Z,13.35
2023-08-11T05:53:24.116Z,13.85
2023-08-11T05:55:50.746Z,14.60
2023-08-11T05:58:17.485Z,13.45
2023-08-11T06:00:43.948Z,12.80
2023-08-11T06:03:10.550Z,12.43
2023-08-11T06:05:37.145Z,11.82
2023-08-11T06:08:06.958Z,12.32
2023-08-11T06:10:34.432Z,12.63
2023-08-11T06:13:01.129Z,11.60
2023-08-11T06:15:27.825Z,13.85
2023-08-11T06:17:54.344Z,13.20
2023-08-11T06:20:34.480Z,11.63
2023-08-11T06:23:07.754Z,12.13
2023-08-11T06:25:34.271Z,13.37
2023-08-11T06:28:00.730Z,11.73
2023-08-11T06:30:29.393Z,12.65
2023-08-11T06:32:56.188Z,11.98
2023-08-11T06:35:23.336Z,12.35
2023-08-11T06:37:49.793Z,12.80
2023-08-11T06:40:16.897Z,11.25
2023-08-11T06:42:43.368Z,12.70
2023-08-11T06:45:10.133Z,13.00
2023-08-11T06:47:36.716Z,13.02
2023-08-11T06:50:04.448Z,11.87
2023-08-11T06:52:31.031Z,12.45
2023-08-11T06:54:57.636Z,12.73
2023-08-11T06:57:24.393Z,12.47
2023-08-11T06:59:51.015Z,12.90
2023-08-11T07:02:17.480Z,12.80
2023-08-11T07:04:44.204Z,13.23
2023-08-11T07:07:10.958Z,13.25
2023-08-11T07:09:37.403Z,12.55
2023-08-11T07:12:03.990Z,13.25
2023-08-11T07:14:30.431Z,13.10
2023-08-11T07:16:57.155Z,12.43
2023-08-11T07:19:23.602Z,12.80
2023-08-11T07:21:50.123Z,12.90
2023-08-11T07:24:16.729Z,13.35
2023-08-11T07:26:43.176Z,13.00
2023-08-11T07:29:09.789Z,13.23
2023-08-11T07:31:36.222Z,12.88
2023-08-11T07:34:02.940Z,13.27
2023-08-11T07:36:29.367Z,12.82
2023-08-11T07:39:00.172Z,13.20
2023-08-11T07:41:35.927Z,12.68
2023-08-11T07:44:02.752Z,13.85
2023-08-11T07:46:29.302Z,12.45
2023-08-11T07:48:56.456Z,12.23
2023-08-11T07:51:23.232Z,13.00
2023-08-11T07:53:49.971Z,13.70
2023-08-11T07:56:16.410Z,13.82
2023-08-11T07:58:43.018Z,13.55
2023-08-11T08:01:09.763Z,13.50
2023-08-11T08:03:36.557Z,12.43
2023-08-11T08:06:06.136Z,16.67
2023-08-11T08:08:34.767Z,13.75
2023-08-11T08:11:04.864Z,13.25
2023-08-11T08:13:32.450Z,14.18
2023-08-11T08:15:58.897Z,13.40
2023-08-11T08:18:25.421Z,12.82
2023-08-11T08:20:52.021Z,14.32
2023-08-11T08:23:18.802Z,13.52
2023-08-11T08:25:45.231Z,13.38
2023-08-11T08:28:12.435Z,13.57
2023-08-11T08:30:38.846Z,13.73
2023-08-11T08:33:07.629Z,13.25
2023-08-11T08:35:34.496Z,14.50
2023-08-11T08:38:01.095Z,14.38
2023-08-11T08:40:28.561Z,13.60
2023-08-11T08:42:55.091Z,14.93
2023-08-11T08:45:23.080Z,14.65
2023-08-11T08:47:50.951Z,16.02
2023-08-11T08:50:18.420Z,16.25
2023-08-11T08:52:44.982Z,14.97
2023-08-11T08:55:11.815Z,15.80
2023-08-11T08:57:38.302Z,16.45
2023-08-11T09:00:05.128Z,15.90
2023-08-11T09:02:32.140Z,15.85
2023-08-11T09:04:58.773Z,14.83
2023-08-11T09:07:25.765Z,17.15
2023-08-11T09:09:52.404Z,17.25
2023-08-11T09:12:19.012Z,17.73
2023-08-11T09:14:45.603Z,16.92
2023-08-11T09:17:12.404Z,16.17
2023-08-11T09:19:38.890Z,16.67
2023-08-11T09:22:14.207Z,17.38
2023-08-11T09:24:41.903Z,16.08
2023-08-11T09:27:08.430Z,19.92
2023-08-11T09:29:35.962Z,17.60
2023-08-11T09:32:03.178Z,16.90
2023-08-11T09:34:29.864Z,18.33
2023-08-11T09:36:56.264Z,19.80
2023-08-11T09:39:22.925Z,19.48
2023-08-11T09:41:49.965Z,18.20
2023-08-11T09:44:17.607Z,18.60
2023-08-11T09:46:44.516Z,19.35
2023-08-11T09:49:11.432Z,17.23
2023-08-11T09:51:38.505Z,19.30
2023-08-11T09:54:07.954Z,17.27
2023-08-11T09:56:44.426Z,17.20
2023-08-11T09:59:11.623Z,17.27
2023-08-11T10:01:38.232Z,19.33
2023-08-11T10:04:09.135Z,17.80
2023-08-11T10:06:36.245Z,16.17
2023-08-11T10:09:04.107Z,17.38
2023-08-11T10:11:32.895Z,16.50
2023-08-11T10:14:01.713Z,17.55
2023-08-11T10:16:29.165Z,17.42
2023-08-11T10:18:56.601Z,18.23
2023-08-11T10:21:24.640Z,18.70
2023-08-11T10:23:51.174Z,18.92
2023-08-11T10:26:17.756Z,17.15
2023-08-11T10:28:44.792Z,17.58
2023-08-11T10:31:11.372Z,16.27
2023-08-11T10:33:37.917Z,17.85
2023-08-11T10:36:05.723Z,17.20
2023-08-11T10:38:33.378Z,17.85
2023-08-11T10:41:01.190Z,17.40
2023-08-11T10:43:31.985Z,18.00
2023-08-11T10:46:14.991Z,17.52
2023-08-11T10:48:41.586Z,18.35
2023-08-11T10:51:23.678Z,17.50
2023-08-11T10:53:50.102Z,19.17
2023-08-11T10:56:16.857Z,19.70
2023-08-11T10:58:44.482Z,19.85
2023-08-11T11:01:11.185Z,16.80
2023-08-11T11:03:37.960Z,18.67
2023-08-11T11:06:05.664Z,18.23
2023-08-11T11:08:32.282Z,18.40
2023-08-11T11:10:58.860Z,17.50
2023-08-11T11:13:25.773Z,17.65
2023-08-11T11:15:52.233Z,18.17
2023-08-11T11:18:18.678Z,18.13
2023-08-11T11:20:45.419Z,17.77
2023-08-11T11:23:12.486Z,17.75
2023-08-11T11:25:38.962Z,18.10
2023-08-11T11:28:05.704Z,19.27
2023-08-11T11:30:32.501Z,18.08
2023-08-11T11:33:00.537Z,19.10
2023-08-11T11:35:28.662Z,20.95
2023-08-11T11:37:55.489Z,19.40
2023-08-11T11:40:21.931Z,18.65
2023-08-11T11:42:48.400Z,20.02
2023-08-11T11:45:15.920Z,19.73
2023-08-11T11:47:43.052Z,20.02
2023-08-11T11:50:09.768Z,20.17
2023-08-11T11:52:37.814Z,19.67
2023-08-11T11:55:05.742Z,21.38
2023-08-11T11:57:32.132Z,17.83
2023-08-11T11:59:58.823Z,18.92
2023-08-11T12:02:26.796Z,17.77
2023-08-11T12:04:53.853Z,18.08
2023-08-11T12:07:30.614Z,20.25
2023-08-11T12:09:56.978Z,18.93
2023-08-11T12:12:26.786Z,18.70
2023-08-11T12:14:53.994Z,18.02
2023-08-11T12:17:22.464Z,18.50
2023-08-11T12:19:48.922Z,17.10
2023-08-11T12:22:15.426Z,18.80
2023-08-11T12:24:41.822Z,19.08
2023-08-11T12:27:08.338Z,19.63
2023-08-11T12:29:34.899Z,25.65
2023-08-11T12:32:01.296Z,23.42
2023-08-11T12:34:27.819Z,19.53
2023-08-11T12:36:54.163Z,18.27
2023-08-11T12:39:20.766Z,17.75
2023-08-11T12:41:47.345Z,18.65
2023-08-11T12:44:13.945Z,17.42
2023-08-11T12:46:40.564Z,18.53
2023-08-11T12:49:07.048Z,18.48
2023-08-11T12:51:33.687Z,18.48
2023-08-11T12:54:00.140Z,16.45
2023-08-11T12:56:29.621Z,18.92
2023-08-11T12:58:56.034Z,19.60
2023-08-11T13:01:22.953Z,18.00
2023-08-11T13:03:52.370Z,16.50
2023-08-11T13:06:19.043Z,15.10
2023-08-11T13:08:45.524Z,15.57
2023-08-11T13:11:12.018Z,14.40
2023-08-11T13:13:38.483Z,14.77
2023-08-11T13:16:05.257Z,15.40
2023-08-11T13:18:31.675Z,14.73
2023-08-11T13:20:58.135Z,13.45
2023-08-11T13:23:24.608Z,15.40
2023-08-11T13:25:51.234Z,13.75
2023-08-11T13:28:17.749Z,14.35
2023-08-11T13:30:44.248Z,12.93
2023-08-11T13:33:10.746Z,14.60
2023-08-11T13:35:37.124Z,12.23
2023-08-11T13:38:03.686Z,13.50
2023-08-11T13:40:30.138Z,12.93
2023-08-11T13:42:56.697Z,12.45
2023-08-11T13:45:23.176Z,13.23
2023-08-11T13:47:49.900Z,12.70
2023-08-11T13:50:16.550Z,13.27
2023-08-11T13:52:44.764Z,14.38
2023-08-11T13:55:11.688Z,13.38
2023-08-11T13:57:38.186Z,12.38
2023-08-11T14:00:09.002Z,12.20
2023-08-11T14:02:35.467Z,12.00
2023-08-11T14:05:02.191Z,12.95
2023-08-11T14:07:32.571Z,12.93
2023-08-11T14:10:01.868Z,13.48
2023-08-11T14:12:28.311Z,11.97
2023-08-11T14:14:55.081Z,11.65
2023-08-11T14:17:21.543Z,12.32
2023-08-11T14:19:48.086Z,12.70
2023-08-11T14:22:14.508Z,18.95
2023-08-11T14:24:40.943Z,11.37
2023-08-11T14:27:07.419Z,11.68
2023-08-11T14:29:33.861Z,11.70
2023-08-11T14:32:13.852Z,10.25
2023-08-11T14:34:46.742Z,10.98
2023-08-11T14:37:15.223Z,10.70
2023-08-11T14:39:43.362Z,11.85
2023-08-11T14:42:09.984Z,11.18
2023-08-11T14:44:36.553Z,10.80
2023-08-11T14:47:03.010Z,11.70
2023-08-11T14:49:29.419Z,11.83
2023-08-11T14:51:56.179Z,12.55
2023-08-11T14:54:27.714Z,11.30
2023-08-11T14:56:55.397Z,11.25
2023-08-11T14:59:22.000Z,10.73
2023-08-11T15:01:48.492Z,10.83
2023-08-11T15:04:14.937Z,11.82
2023-08-11T15:06:41.364Z,12.30
2023-08-11T15:09:08.594Z,11.70
2023-08-11T15:11:35.253Z,11.02
2023-08-11T15:14:01.697Z,12.10
2023-08-11T15:16:28.878Z,12.48
2023-08-11T15:18:55.354Z,10.88
2023-08-11T15:21:21.886Z,11.57
2023-08-11T15:23:48.349Z,11.40
2023-08-11T15:26:15.248Z,10.57
2023-08-11T15:28:42.022Z,13.43
2023-08-11T15:31:08.636Z,9.70
2023-08-11T15:33:35.148Z,11.65
2023-08-11T15:36:01.703Z,10.70
2023-08-11T15:38:28.517Z,11.07
2023-08-11T15:40:54.971Z,9.95
2023-08-11T15:43:21.459Z,10.80
2023-08-11T15:45:47.968Z,10.70
2023-08-11T15:48:14.542Z,12.10
2023-08-11T15:50:40.991Z,11.33
2023-08-11T15:53:07.458Z,10.63
2023-08-11T15:55:36.685Z,12.05
2023-08-11T15:58:03.427Z,13.98
2023-08-11T16:00:29.917Z,12.40
2023-08-11T16:02:56.411Z,11.40
2023-08-11T16:05:23.009Z,11.80
2023-08-11T16:07:49.589Z,10.65
2023-08-11T16:10:16.101Z,11.18
2023-08-11T16:12:42.516Z,11.50
2023-08-11T16:15:09.470Z,11.23
2023-08-11T16:17:36.468Z,11.65
2023-08-11T16:20:03.036Z,12.20
2023-08-11T16:22:31.533Z,11.15
2023-08-11T16:24:58.028Z,11.65
2023-08-11T16:27:24.890Z,11.60
2023-08-11T16:29:53.831Z,11.00
2023-08-11T16:32:20.708Z,12.55
2023-08-11T16:34:47.159Z,11.30
2023-08-11T16:37:13.538Z,12.90
2023-08-11T16:39:39.974Z,11.10
2023-08-11T16:42:07.578Z,9.60
2023-08-11T16:44:34.103Z,10.48
2023-08-11T16:47:00.489Z,9.85
2023-08-11T16:49:27.063Z,11.02
2023-08-11T16:51:53.528Z,9.73
2023-08-11T16:54:20.180Z,8.82
2023-08-11T16:56:46.630Z,10.32
2023-08-11T16:59:13.099Z,10.85
2023-08-11T17:01:39.604Z,9.63
2023-08-11T17:04:06.264Z,9.13
2023-08-11T17:06:32.768Z,8.65
2023-08-11T17:08:59.270Z,12.65
2023-08-11T17:11:25.787Z,9.45
2023-08-11T17:13:52.382Z,8.43
2023-08-11T17:16:19.464Z,9.50
2023-08-11T17:18:47.285Z,8.48
2023-08-11T17:21:19.756Z,7.55
2023-08-11T17:23:47.457Z,7.97
2023-08-11T17:26:14.552Z,8.05
2023-08-11T17:28:41.276Z,7.20
2023-08-11T17:31:08.567Z,7.20
2023-08-11T17:33:36.251Z,7.55
2023-08-11T17:36:03.806Z,7.28
2023-08-11T17:38:30.795Z,9.98
2023-08-11T17:40:57.242Z,6.97
2023-08-11T17:43:24.016Z,8.15
2023-08-11T17:45:51.589Z,7.40
2023-08-11T17:48:18.411Z,6.57
2023-08-11T17:50:44.821Z,7.88
2023-08-11T17:53:11.251Z,7.60
2023-08-11T17:55:37.611Z,6.53
2023-08-11T17:58:04.436Z,9.43
2023-08-11T18:00:31.026Z,14.75
2023-08-11T18:02:57.732Z,8.80
2023-08-11T18:05:24.317Z,8.07
2023-08-11T18:07:50.752Z,8.65
2023-08-11T18:10:17.289Z,8.18
2023-08-11T18:12:43.806Z,8.43
2023-08-11T18:15:10.310Z,7.78
2023-08-11T18:17:37.149Z,7.00
2023-08-11T18:20:05.837Z,7.03
2023-08-11T18:22:32.292Z,8.15
2023-08-11T18:24:58.820Z,8.32
2023-08-11T18:27:25.292Z,8.70
2023-08-11T18:29:52.071Z,7.33
2023-08-11T18:32:18.832Z,7.60
2023-08-11T18:34:45.349Z,7.53
2023-08-11T18:37:12.127Z,8.48
2023-08-11T18:39:38.685Z,7.38
2023-08-11T18:42:05.689Z,7.47
2023-08-11T18:44:32.276Z,6.85
2023-08-11T18:46:58.848Z,8.38
2023-08-11T18:49:28.428Z,8.23
2023-08-11T18:51:55.033Z,8.18
2023-08-11T18:54:21.393Z,7.50
2023-08-11T18:56:47.782Z,7.57
2023-08-11T18:59:14.285Z,7.40
2023-08-11T19:01:41.775Z,6.90
2023-08-11T19:04:09.085Z,7.70
2023-08-11T19:06:38.425Z,8.90
2023-08-11T19:09:08.510Z,6.50
2023-08-11T19:11:35.245Z,6.80
2023-08-11T19:14:02.298Z,6.32
2023-08-11T19:16:28.803Z,8.10
2023-08-11T19:18:55.374Z,5.87
2023-08-11T19:21:21.817Z,6.97
2023-08-11T19:23:48.376Z,6.65
2023-08-11T19:26:14.978Z,8.45
2023-08-11T19:28:41.389Z,7.22
2023-08-11T19:31:08.074Z,6.83
2023-08-11T19:33:36.075Z,6.90
2023-08-11T19:36:02.479Z,7.53
2023-08-11T19:38:29.298Z,6.85
2023-08-11T19:40:55.972Z,6.97
2023-08-11T19:43:22.439Z,7.43
2023-08-11T19:45:49.555Z,7.93
2023-08-11T19:48:19.362Z,8.77
2023-08-11T19:50:49.306Z,6.18
2023-08-11T19:53:15.861Z,7.35
2023-08-11T19:55:46.228Z,7.47
2023-08-11T19:58:13.113Z,7.93
2023-08-11T20:00:40.154Z,8.88
2023-08-11T20:03:08.338Z,7.63
2023-08-11T20:05:35.735Z,7.13
2023-08-11T20:08:02.167Z,7.70
2023-08-11T20:10:28.600Z,6.38
2023-08-11T20:12:55.286Z,6.55
2023-08-11T20:15:21.726Z,8.20
2023-08-11T20:17:49.373Z,6.63
2023-08-11T20:20:15.888Z,6.53
2023-08-11T20:22:42.416Z,6.60
2023-08-11T20:25:09.517Z,6.80
2023-08-11T20:27:36.104Z,6.55
2023-08-11T20:30:03.262Z,6.80
2023-08-11T20:32:29.712Z,7.60
2023-08-11T20:34:56.329Z,6.55
2023-08-11T20:37:22.942Z,6.55
2023-08-11T20:39:49.296Z,6.88
2023-08-11T20:42:15.834Z,7.82
2023-08-11T20:44:42.340Z,7.73
2023-08-11T20:47:09.062Z,7.95
2023-08-11T20:49:35.784Z,9.45
2023-08-11T20:52:02.340Z,8.00
2023-08-11T20:54:28.735Z,8.82
2023-08-11T20:56:57.043Z,8.27
2023-08-11T20:59:23.773Z,9.23
2023-08-11T21:01:50.325Z,8.68
2023-08-11T21:04:16.885Z,7.88
2023-08-11T21:06:43.486Z,10.55
2023-08-11T21:09:10.246Z,8.83
2023-08-11T21:11:36.784Z,9.82
2023-08-11T21:14:09.638Z,11.05
2023-08-11T21:16:36.458Z,8.98
2023-08-11T21:19:02.947Z,9.98
2023-08-11T21:21:29.424Z,9.17
2023-08-11T21:23:55.980Z,10.70
2023-08-11T21:26:22.649Z,10.57
2023-08-11T21:28:49.154Z,10.90
2023-08-11T21:31:18.874Z,10.95
2023-08-11T21:33:45.755Z,10.47
2023-08-11T21:36:12.171Z,10.90
2023-08-11T21:38:38.580Z,10.98
2023-08-11T21:41:05.563Z,11.77
2023-08-11T21:43:32.009Z,10.70
2023-08-11T21:45:58.428Z,11.10
2023-08-11T21:48:24.831Z,10.52
2023-08-11T21:50:51.432Z,12.57
2023-08-11T21:53:23.521Z,13.32
2023-08-11T21:55:50.726Z,12.55
2023-08-11T21:58:17.328Z,12.00
2023-08-11T22:00:44.897Z,11.88
2023-08-11T22:03:11.676Z,12.38
2023-08-11T22:05:38.231Z,11.32
2023-08-11T22:08:05.872Z,12.35
2023-08-11T22:10:32.464Z,10.90
2023-08-11T22:12:59.059Z,11.18
2023-08-11T22:15:25.534Z,11.57
2023-08-11T22:17:52.067Z,10.95
2023-08-11T22:20:18.735Z,11.25
2023-08-11T22:22:45.178Z,11.57
2023-08-11T22:25:11.812Z,10.48
2023-08-11T22:27:38.593Z,13.13
2023-08-11T22:30:06.031Z,13.27
2023-08-11T22:32:32.730Z,12.18
2023-08-11T22:34:59.301Z,12.47
2023-08-11T22:37:26.205Z,13.70
2023-08-11T22:39:52.950Z,14.43
2023-08-11T22:42:22.061Z,11.93
2023-08-11T22:44:51.077Z,13.10
2023-08-11T22:47:17.825Z,12.97
2023-08-11T22:49:44.283Z,12.63
2023-08-11T22:52:10.963Z,12.40
2023-08-11T22:54:37.529Z,11.85
2023-08-11T22:57:04.032Z,13.55
2023-08-11T22:59:30.739Z,11.97
2023-08-11T23:01:57.321Z,13.98
2023-08-11T23:04:23.843Z,12.85
2023-08-11T23:06:50.302Z,11.45
2023-08-11T23:09:16.969Z,13.73
2023-08-11T23:11:43.508Z,13.80
2023-08-11T23:14:09.977Z,14.10
2023-08-11T23:16:36.440Z,13.95
2023-08-11T23:19:03.073Z,13.75
2023-08-11T23:21:30.382Z,12.82
2023-08-11T23:23:56.827Z,12.97
2023-08-11T23:26:23.644Z,14.38
2023-08-11T23:28:50.098Z,14.32
2023-08-11T23:31:17.934Z,14.50
2023-08-11T23:33:44.527Z,14.30
2023-08-11T23:36:12.342Z,13.90
2023-08-11T23:38:38.989Z,14.65
2023-08-11T23:41:05.697Z,16.25
2023-08-11T23:43:32.595Z,14.07
2023-08-11T23:45:59.392Z,16.33
2023-08-11T23:48:25.904Z,14.83
2023-08-11T23:50:52.401Z,15.32
2023-08-11T23:53:18.869Z,14.38
2023-08-11T23:55:45.577Z,15.98
2023-08-11T23:58:12.928Z,14.50
